sensor_id;sensor_type;location;lat;lon;timestamp;P1;durP1;ratioP1;P2;durP2;ratioP2
24559;SDS011;12727;49.934;8.656;2023-11-21T00:02:17;6.38;;;1.73;;
24559;SDS011;12727;49.934;8.656;2023-11-21T00:04:43;6.70;;;1.95;;
24559;SDS011;12727;49.934;8.656;2023-11-21T00:07:08;6.70;;;1.95;;
24559;SDS011;12727;49.934;8.656;2023-11-21T00:09:34;6.85;;;1.80;;
24559;SDS011;12727;49.934;8.656;2023-11-21T00:12:01;6.72;;;1.70;;
24559;SDS011;12727;49.934;8.656;2023-11-21T00:14:27;9.00;;;2.10;;
24559;SDS011;12727;49.934;8.656;2023-11-21T00:16:52;6.50;;;1.90;;
24559;SDS011;12727;49.934;8.656;2023-11-21T00:19:18;5.97;;;1.95;;
24559;SDS011;12727;49.934;8.656;2023-11-21T00:21:44;5.18;;;1.80;;
24559;SDS011;12727;49.934;8.656;2023-11-21T00:24:10;7.55;;;2.03;;
24559;SDS011;12727;49.934;8.656;2023-11-21T00:26:38;7.20;;;2.03;;
24559;SDS011;12727;49.934;8.656;2023-11-21T00:29:04;9.05;;;2.17;;
24559;SDS011;12727;49.934;8.656;2023-11-21T00:31:33;4.63;;;2.30;;
24559;SDS011;12727;49.934;8.656;2023-11-21T00:34:02;9.02;;;2.30;;
24559;SDS011;12727;49.934;8.656;2023-11-21T00:36:28;5.82;;;2.03;;
24559;SDS011;12727;49.934;8.656;2023-11-21T00:38:54;8.68;;;2.28;;
24559;SDS011;12727;49.934;8.656;2023-11-21T00:41:20;6.47;;;2.13;;
24559;SDS011;12727;49.934;8.656;2023-11-21T00:43:46;7.35;;;2.55;;
24559;SDS011;12727;49.934;8.656;2023-11-21T00:46:12;9.43;;;2.97;;
24559;SDS011;12727;49.934;8.656;2023-11-21T00:48:38;5.28;;;2.70;;
24559;SDS011;12727;49.934;8.656;2023-11-21T00:51:04;8.27;;;2.88;;
24559;SDS011;12727;49.934;8.656;2023-11-21T00:53:31;6.97;;;2.80;;
24559;SDS011;12727;49.934;8.656;2023-11-21T00:55:57;7.55;;;2.97;;
24559;SDS011;12727;49.934;8.656;2023-11-21T00:58:25;5.07;;;2.90;;
24559;SDS011;12727;49.934;8.656;2023-11-21T01:00:51;7.85;;;2.67;;
24559;SDS011;12727;49.934;8.656;2023-11-21T01:03:16;7.25;;;3.03;;
24559;SDS011;12727;49.934;8.656;2023-11-21T01:05:42;8.55;;;3.00;;
24559;SDS011;12727;49.934;8.656;2023-11-21T01:08:07;8.13;;;3.25;;
24559;SDS011;12727;49.934;8.656;2023-11-21T01:10:33;8.38;;;3.22;;
24559;SDS011;12727;49.934;8.656;2023-11-21T01:13:01;8.15;;;3.50;;
24559;SDS011;12727;49.934;8.656;2023-11-21T01:15:30;11.98;;;4.00;;
24559;SDS011;12727;49.934;8.656;2023-11-21T01:17:56;9.48;;;4.18;;
24559;SDS011;12727;49.934;8.656;2023-11-21T01:20:22;8.10;;;3.97;;
24559;SDS011;12727;49.934;8.656;2023-11-21T01:22:47;10.65;;;4.40;;
24559;SDS011;12727;49.934;8.656;2023-11-21T01:25:14;8.70;;;4.38;;
24559;SDS011;12727;49.934;8.656;2023-11-21T01:27:41;12.45;;;4.60;;
24559;SDS011;12727;49.934;8.656;2023-11-21T01:30:07;10.32;;;4.90;;
24559;SDS011;12727;49.934;8.656;2023-11-21T01:32:35;9.43;;;4.90;;
24559;SDS011;12727;49.934;8.656;2023-11-21T01:35:01;8.13;;;5.05;;
24559;SDS011;12727;49.934;8.656;2023-11-21T01:37:28;10.95;;;5.40;;
24559;SDS011;12727;49.934;8.656;2023-11-21T01:39:54;11.40;;;5.60;;
24559;SDS011;12727;49.934;8.656;2023-11-21T01:42:23;9.73;;;5.15;;
24559;SDS011;12727;49.934;8.656;2023-11-21T01:44:49;10.40;;;5.72;;
24559;SDS011;12727;49.934;8.656;2023-11-21T01:47:15;9.70;;;4.95;;
24559;SDS011;12727;49.934;8.656;2023-11-21T01:49:43;8.32;;;5.18;;
24559;SDS011;12727;49.934;8.656;2023-11-21T01:52:10;9.90;;;5.13;;
24559;SDS011;12727;49.934;8.656;2023-11-21T01:54:37;11.40;;;5.40;;
24559;SDS011;12727;49.934;8.656;2023-11-21T01:57:03;10.20;;;5.53;;
24559;SDS011;12727;49.934;8.656;2023-11-21T01:59:34;12.60;;;5.38;;
24559;SDS011;12727;49.934;8.656;2023-11-21T02:02:04;10.30;;;5.47;;
24559;SDS011;12727;49.934;8.656;2023-11-21T02:04:34;11.43;;;5.65;;
24559;SDS011;12727;49.934;8.656;2023-11-21T02:07:02;10.15;;;5.78;;
24559;SDS011;12727;49.934;8.656;2023-11-21T02:09:30;12.10;;;6.43;;
24559;SDS011;12727;49.934;8.656;2023-11-21T02:11:58;12.40;;;5.85;;
24559;SDS011;12727;49.934;8.656;2023-11-21T02:14:26;9.13;;;5.30;;
24559;SDS011;12727;49.934;8.656;2023-11-21T02:16:53;12.20;;;5.90;;
24559;SDS011;12727;49.934;8.656;2023-11-21T02:19:19;10.73;;;6.20;;
24559;SDS011;12727;49.934;8.656;2023-11-21T02:21:54;11.90;;;6.18;;
24559;SDS011;12727;49.934;8.656;2023-11-21T02:24:23;10.00;;;5.93;;
24559;SDS011;12727;49.934;8.656;2023-11-21T02:26:49;12.65;;;6.88;;
24559;SDS011;12727;49.934;8.656;2023-11-21T02:29:16;14.52;;;6.38;;
24559;SDS011;12727;49.934;8.656;2023-11-21T02:31:43;11.10;;;6.28;;
24559;SDS011;12727;49.934;8.656;2023-11-21T02:34:16;9.63;;;5.47;;
24559;SDS011;12727;49.934;8.656;2023-11-21T02:36:43;11.50;;;5.20;;
24559;SDS011;12727;49.934;8.656;2023-11-21T02:39:09;9.43;;;6.22;;
24559;SDS011;12727;49.934;8.656;2023-11-21T02:41:39;10.75;;;6.40;;
24559;SDS011;12727;49.934;8.656;2023-11-21T02:44:05;10.45;;;5.88;;
24559;SDS011;12727;49.934;8.656;2023-11-21T02:46:32;11.77;;;7.18;;
24559;SDS011;12727;49.934;8.656;2023-11-21T02:48:59;11.07;;;6.90;;
24559;SDS011;12727;49.934;8.656;2023-11-21T02:51:25;7.57;;;6.13;;
24559;SDS011;12727;49.934;8.656;2023-11-21T02:53:51;7.63;;;5.63;;
24559;SDS011;12727;49.934;8.656;2023-11-21T02:56:17;8.98;;;5.25;;
24559;SDS011;12727;49.934;8.656;2023-11-21T02:58:43;8.75;;;5.03;;
24559;SDS011;12727;49.934;8.656;2023-11-21T03:01:09;9.48;;;5.68;;
24559;SDS011;12727;49.934;8.656;2023-11-21T03:03:36;9.65;;;5.50;;
24559;SDS011;12727;49.934;8.656;2023-11-21T03:06:05;9.73;;;6.20;;
24559;SDS011;12727;49.934;8.656;2023-11-21T03:08:31;10.27;;;6.32;;
24559;SDS011;12727;49.934;8.656;2023-11-21T03:10:57;12.48;;;6.20;;
24559;SDS011;12727;49.934;8.656;2023-11-21T03:13:23;11.13;;;7.25;;
24559;SDS011;12727;49.934;8.656;2023-11-21T03:15:48;9.95;;;6.95;;
24559;SDS011;12727;49.934;8.656;2023-11-21T03:18:14;14.80;;;7.38;;
24559;SDS011;12727;49.934;8.656;2023-11-21T03:20:40;13.05;;;7.60;;
24559;SDS011;12727;49.934;8.656;2023-11-21T03:23:06;10.45;;;6.68;;
24559;SDS011;12727;49.934;8.656;2023-11-21T03:25:32;9.38;;;7.22;;
24559;SDS011;12727;49.934;8.656;2023-11-21T03:27:57;10.45;;;7.57;;
24559;SDS011;12727;49.934;8.656;2023-11-21T03:30:23;13.95;;;8.27;;
24559;SDS011;12727;49.934;8.656;2023-11-21T03:32:48;10.50;;;6.40;;
24559;SDS011;12727;49.934;8.656;2023-11-21T03:35:14;14.45;;;8.00;;
24559;SDS011;12727;49.934;8.656;2023-11-21T03:37:39;10.75;;;8.48;;
24559;SDS011;12727;49.934;8.656;2023-11-21T03:40:06;16.50;;;8.43;;
24559;SDS011;12727;49.934;8.656;2023-11-21T03:42:34;24.40;;;10.43;;
24559;SDS011;12727;49.934;8.656;2023-11-21T03:44:59;13.88;;;8.88;;
24559;SDS011;12727;49.934;8.656;2023-11-21T03:47:26;15.23;;;9.07;;
24559;SDS011;12727;49.934;8.656;2023-11-21T03:49:52;15.73;;;9.35;;
24559;SDS011;12727;49.934;8.656;2023-11-21T03:52:18;13.15;;;8.80;;
24559;SDS011;12727;49.934;8.656;2023-11-21T03:54:44;14.48;;;8.70;;
24559;SDS011;12727;49.934;8.656;2023-11-21T03:57:09;19.60;;;9.43;;
24559;SDS011;12727;49.934;8.656;2023-11-21T03:59:35;21.25;;;10.07;;
24559;SDS011;12727;49.934;8.656;2023-11-21T04:02:01;20.67;;;11.45;;
24559;SDS011;12727;49.934;8.656;2023-11-21T04:04:26;15.27;;;9.52;;
24559;SDS011;12727;49.934;8.656;2023-11-21T04:06:52;17.33;;;8.57;;
24559;SDS011;12727;49.934;8.656;2023-11-21T04:09:18;15.63;;;8.13;;
24559;SDS011;12727;49.934;8.656;2023-11-21T04:11:43;10.88;;;7.15;;
24559;SDS011;12727;49.934;8.656;2023-11-21T04:14:10;13.68;;;7.53;;
24559;SDS011;12727;49.934;8.656;2023-11-21T04:16:36;16.95;;;9.15;;
24559;SDS011;12727;49.934;8.656;2023-11-21T04:19:01;20.50;;;11.00;;
24559;SDS011;12727;49.934;8.656;2023-11-21T04:21:27;24.60;;;12.15;;
24559;SDS011;12727;49.934;8.656;2023-11-21T04:23:52;23.92;;;11.30;;
24559;SDS011;12727;49.934;8.656;2023-11-21T04:26:18;22.33;;;11.77;;
24559;SDS011;12727;49.934;8.656;2023-11-21T04:28:43;19.80;;;11.50;;
24559;SDS011;12727;49.934;8.656;2023-11-21T04:31:09;24.45;;;12.90;;
24559;SDS011;12727;49.934;8.656;2023-11-21T04:33:35;25.20;;;12.43;;
24559;SDS011;12727;49.934;8.656;2023-11-21T04:36:01;18.77;;;11.85;;
24559;SDS011;12727;49.934;8.656;2023-11-21T04:38:26;24.45;;;10.70;;
24559;SDS011;12727;49.934;8.656;2023-11-21T04:40:52;24.58;;;10.50;;
24559;SDS011;12727;49.934;8.656;2023-11-21T04:43:17;24.63;;;12.80;;
24559;SDS011;12727;49.934;8.656;2023-11-21T04:45:43;22.50;;;11.73;;
24559;SDS011;12727;49.934;8.656;2023-11-21T04:48:09;16.33;;;10.02;;
24559;SDS011;12727;49.934;8.656;2023-11-21T04:50:35;16.45;;;9.00;;
24559;SDS011;12727;49.934;8.656;2023-11-21T04:53:00;13.80;;;8.40;;
24559;SDS011;12727;49.934;8.656;2023-11-21T04:55:26;15.90;;;8.25;;
24559;SDS011;12727;49.934;8.656;2023-11-21T04:57:53;16.85;;;8.20;;
24559;SDS011;12727;49.934;8.656;2023-11-21T05:00:18;13.63;;;7.40;;
24559;SDS011;12727;49.934;8.656;2023-11-21T05:02:46;16.38;;;7.90;;
24559;SDS011;12727;49.934;8.656;2023-11-21T05:05:12;17.30;;;7.22;;
24559;SDS011;12727;49.934;8.656;2023-11-21T05:07:38;14.13;;;7.43;;
24559;SDS011;12727;49.934;8.656;2023-11-21T05:10:07;11.85;;;6.22;;
24559;SDS011;12727;49.934;8.656;2023-11-21T05:12:36;8.10;;;4.78;;
24559;SDS011;12727;49.934;8.656;2023-11-21T05:15:05;7.80;;;3.53;;
24559;SDS011;12727;49.934;8.656;2023-11-21T05:17:37;5.80;;;3.20;;
24559;SDS011;12727;49.934;8.656;2023-11-21T05:20:13;4.50;;;2.88;;
24559;SDS011;12727;49.934;8.656;2023-11-21T05:22:42;4.60;;;2.20;;
24559;SDS011;12727;49.934;8.656;2023-11-21T05:25:08;7.63;;;2.70;;
24559;SDS011;12727;49.934;8.656;2023-11-21T05:27:34;5.32;;;2.85;;
24559;SDS011;12727;49.934;8.656;2023-11-21T05:30:01;3.78;;;2.28;;
24559;SDS011;12727;49.934;8.656;2023-11-21T05:32:30;6.07;;;2.35;;
24559;SDS011;12727;49.934;8.656;2023-11-21T05:34:56;4.22;;;2.50;;
24559;SDS011;12727;49.934;8.656;2023-11-21T05:37:22;3.45;;;1.70;;
24559;SDS011;12727;49.934;8.656;2023-11-21T05:39:48;5.07;;;1.88;;
24559;SDS011;12727;49.934;8.656;2023-11-21T05:42:14;4.32;;;2.53;;
24559;SDS011;12727;49.934;8.656;2023-11-21T05:44:43;6.45;;;2.65;;
24559;SDS011;12727;49.934;8.656;2023-11-21T05:47:09;5.50;;;2.60;;
24559;SDS011;12727;49.934;8.656;2023-11-21T05:49:34;4.85;;;2.00;;
24559;SDS011;12727;49.934;8.656;2023-11-21T05:52:01;3.40;;;1.90;;
24559;SDS011;12727;49.934;8.656;2023-11-21T05:54:26;3.58;;;1.70;;
24559;SDS011;12727;49.934;8.656;2023-11-21T05:56:52;4.18;;;1.60;;
24559;SDS011;12727;49.934;8.656;2023-11-21T05:59:17;3.55;;;1.67;;
24559;SDS011;12727;49.934;8.656;2023-11-21T06:01:43;5.90;;;1.63;;
24559;SDS011;12727;49.934;8.656;2023-11-21T06:04:10;3.33;;;1.95;;
24559;SDS011;12727;49.934;8.656;2023-11-21T06:06:36;5.90;;;2.15;;
24559;SDS011;12727;49.934;8.656;2023-11-21T06:09:01;5.22;;;2.78;;
24559;SDS011;12727;49.934;8.656;2023-11-21T06:11:27;8.07;;;3.90;;
24559;SDS011;12727;49.934;8.656;2023-11-21T06:13:53;10.85;;;3.65;;
24559;SDS011;12727;49.934;8.656;2023-11-21T06:16:19;7.65;;;3.90;;
24559;SDS011;12727;49.934;8.656;2023-11-21T06:18:47;7.68;;;3.83;;
24559;SDS011;12727;49.934;8.656;2023-11-21T06:21:13;7.43;;;3.83;;
24559;SDS011;12727;49.934;8.656;2023-11-21T06:23:38;8.63;;;4.10;;
24559;SDS011;12727;49.934;8.656;2023-11-21T06:26:05;7.25;;;4.00;;
24559;SDS011;12727;49.934;8.656;2023-11-21T06:28:31;5.78;;;3.50;;
24559;SDS011;12727;49.934;8.656;2023-11-21T06:30:57;5.63;;;3.70;;
24559;SDS011;12727;49.934;8.656;2023-11-21T06:33:23;9.85;;;3.85;;
24559;SDS011;12727;49.934;8.656;2023-11-21T06:35:49;5.65;;;3.55;;
24559;SDS011;12727;49.934;8.656;2023-11-21T06:38:14;6.00;;;3.40;;
24559;SDS011;12727;49.934;8.656;2023-11-21T06:40:40;5.22;;;3.17;;
24559;SDS011;12727;49.934;8.656;2023-11-21T06:43:06;6.78;;;4.00;;
24559;SDS011;12727;49.934;8.656;2023-11-21T06:45:32;7.07;;;3.80;;
24559;SDS011;12727;49.934;8.656;2023-11-21T06:47:59;8.13;;;4.15;;
24559;SDS011;12727;49.934;8.656;2023-11-21T06:50:24;7.13;;;3.97;;
24559;SDS011;12727;49.934;8.656;2023-11-21T06:52:50;7.97;;;4.10;;
24559;SDS011;12727;49.934;8.656;2023-11-21T06:55:16;12.07;;;4.25;;
24559;SDS011;12727;49.934;8.656;2023-11-21T06:57:41;12.30;;;4.70;;
24559;SDS011;12727;49.934;8.656;2023-11-21T07:00:08;10.45;;;4.63;;
24559;SDS011;12727;49.934;8.656;2023-11-21T07:02:34;11.30;;;4.85;;
24559;SDS011;12727;49.934;8.656;2023-11-21T07:05:00;10.73;;;5.47;;
24559;SDS011;12727;49.934;8.656;2023-11-21T07:07:25;18.20;;;6.10;;
24559;SDS011;12727;49.934;8.656;2023-11-21T07:09:52;11.05;;;5.45;;
24559;SDS011;12727;49.934;8.656;2023-11-21T07:12:17;13.60;;;5.85;;
24559;SDS011;12727;49.934;8.656;2023-11-21T07:14:43;18.83;;;6.35;;
24559;SDS011;12727;49.934;8.656;2023-11-21T07:17:10;8.15;;;4.90;;
24559;SDS011;12727;49.934;8.656;2023-11-21T07:19:37;8.30;;;5.68;;
24559;SDS011;12727;49.934;8.656;2023-11-21T07:22:03;11.60;;;5.78;;
24559;SDS011;12727;49.934;8.656;2023-11-21T07:24:30;11.60;;;5.10;;
24559;SDS011;12727;49.934;8.656;2023-11-21T07:26:56;17.05;;;7.05;;
24559;SDS011;12727;49.934;8.656;2023-11-21T07:29:25;19.63;;;7.72;;
24559;SDS011;12727;49.934;8.656;2023-11-21T07:31:51;17.98;;;8.63;;
24559;SDS011;12727;49.934;8.656;2023-11-21T07:34:17;21.95;;;9.70;;
24559;SDS011;12727;49.934;8.656;2023-11-21T07:36:44;17.52;;;8.23;;
24559;SDS011;12727;49.934;8.656;2023-11-21T07:39:10;16.90;;;9.23;;
24559;SDS011;12727;49.934;8.656;2023-11-21T07:41:36;16.88;;;8.10;;
24559;SDS011;12727;49.934;8.656;2023-11-21T07:44:03;25.88;;;11.23;;
24559;SDS011;12727;49.934;8.656;2023-11-21T07:46:28;34.17;;;11.93;;
24559;SDS011;12727;49.934;8.656;2023-11-21T07:48:54;30.77;;;13.38;;
24559;SDS011;12727;49.934;8.656;2023-11-21T07:51:20;30.58;;;12.85;;
24559;SDS011;12727;49.934;8.656;2023-11-21T07:53:45;27.67;;;13.15;;
24559;SDS011;12727;49.934;8.656;2023-11-21T07:56:11;21.27;;;11.93;;
24559;SDS011;12727;49.934;8.656;2023-11-21T07:58:37;34.30;;;13.93;;
24559;SDS011;12727;49.934;8.656;2023-11-21T08:01:04;29.65;;;14.02;;
24559;SDS011;12727;49.934;8.656;2023-11-21T08:03:30;28.58;;;13.60;;
24559;SDS011;12727;49.934;8.656;2023-11-21T08:05:59;29.58;;;13.82;;
24559;SDS011;12727;49.934;8.656;2023-11-21T08:08:25;29.05;;;12.40;;
24559;SDS011;12727;49.934;8.656;2023-11-21T08:10:51;23.88;;;12.32;;
24559;SDS011;12727;49.934;8.656;2023-11-21T08:13:21;25.42;;;12.13;;
24559;SDS011;12727;49.934;8.656;2023-11-21T08:15:50;22.80;;;10.65;;
24559;SDS011;12727;49.934;8.656;2023-11-21T08:18:19;21.42;;;10.65;;
24559;SDS011;12727;49.934;8.656;2023-11-21T08:20:44;18.08;;;10.25;;
24559;SDS011;12727;49.934;8.656;2023-11-21T08:23:12;19.92;;;10.52;;
24559;SDS011;12727;49.934;8.656;2023-11-21T08:25:40;22.27;;;10.50;;
24559;SDS011;12727;49.934;8.656;2023-11-21T08:28:07;19.75;;;10.80;;
24559;SDS011;12727;49.934;8.656;2023-11-21T08:30:32;19.02;;;9.90;;
24559;SDS011;12727;49.934;8.656;2023-11-21T08:32:59;17.33;;;9.40;;
24559;SDS011;12727;49.934;8.656;2023-11-21T08:35:25;15.63;;;8.68;;
24559;SDS011;12727;49.934;8.656;2023-11-21T08:37:51;13.90;;;8.20;;
24559;SDS011;12727;49.934;8.656;2023-11-21T08:40:20;15.27;;;8.63;;
24559;SDS011;12727;49.934;8.656;2023-11-21T08:42:46;14.60;;;7.90;;
24559;SDS011;12727;49.934;8.656;2023-11-21T08:45:13;15.07;;;8.52;;
24559;SDS011;12727;49.934;8.656;2023-11-21T08:47:39;11.77;;;6.53;;
24559;SDS011;12727;49.934;8.656;2023-11-21T08:50:06;11.70;;;7.00;;
24559;SDS011;12727;49.934;8.656;2023-11-21T08:52:33;9.35;;;5.75;;
24559;SDS011;12727;49.934;8.656;2023-11-21T08:54:59;10.13;;;6.40;;
24559;SDS011;12727;49.934;8.656;2023-11-21T08:57:28;10.35;;;6.03;;
24559;SDS011;12727;49.934;8.656;2023-11-21T08:59:54;11.32;;;5.45;;
24559;SDS011;12727;49.934;8.656;2023-11-21T09:02:25;8.48;;;5.45;;
24559;SDS011;12727;49.934;8.656;2023-11-21T09:04:51;9.90;;;5.82;;
24559;SDS011;12727;49.934;8.656;2023-11-21T09:07:18;10.15;;;6.03;;
24559;SDS011;12727;49.934;8.656;2023-11-21T09:09:45;10.43;;;6.50;;
24559;SDS011;12727;49.934;8.656;2023-11-21T09:12:14;8.27;;;5.80;;
24559;SDS011;12727;49.934;8.656;2023-11-21T09:14:40;9.27;;;6.18;;
24559;SDS011;12727;49.934;8.656;2023-11-21T09:17:07;9.65;;;5.88;;
24559;SDS011;12727;49.934;8.656;2023-11-21T09:19:38;10.55;;;6.68;;
24559;SDS011;12727;49.934;8.656;2023-11-21T09:22:04;11.95;;;6.72;;
24559;SDS011;12727;49.934;8.656;2023-11-21T09:24:31;11.73;;;7.60;;
24559;SDS011;12727;49.934;8.656;2023-11-21T09:26:57;12.43;;;7.80;;
24559;SDS011;12727;49.934;8.656;2023-11-21T09:29:22;14.23;;;8.02;;
24559;SDS011;12727;49.934;8.656;2023-11-21T09:31:48;16.50;;;8.50;;
24559;SDS011;12727;49.934;8.656;2023-11-21T09:34:16;12.93;;;8.27;;
24559;SDS011;12727;49.934;8.656;2023-11-21T09:36:44;14.60;;;8.23;;
24559;SDS011;12727;49.934;8.656;2023-11-21T09:39:10;14.73;;;8.85;;
24559;SDS011;12727;49.934;8.656;2023-11-21T09:44:14;13.63;;;8.32;;
24559;SDS011;12727;49.934;8.656;2023-11-21T09:46:48;14.60;;;8.90;;
24559;SDS011;12727;49.934;8.656;2023-11-21T09:49:22;17.45;;;9.02;;
24559;SDS011;12727;49.934;8.656;2023-11-21T09:51:53;14.20;;;8.70;;
24559;SDS011;12727;49.934;8.656;2023-11-21T09:54:23;14.50;;;8.63;;
24559;SDS011;12727;49.934;8.656;2023-11-21T09:56:50;14.27;;;8.63;;
24559;SDS011;12727;49.934;8.656;2023-11-21T09:59:15;14.00;;;9.00;;
24559;SDS011;12727;49.934;8.656;2023-11-21T10:01:41;13.65;;;8.50;;
24559;SDS011;12727;49.934;8.656;2023-11-21T10:04:08;14.70;;;9.20;;
24559;SDS011;12727;49.934;8.656;2023-11-21T10:06:40;13.38;;;8.65;;
24559;SDS011;12727;49.934;8.656;2023-11-21T10:09:08;14.35;;;8.40;;
24559;SDS011;12727;49.934;8.656;2023-11-21T10:11:38;14.27;;;8.50;;
24559;SDS011;12727;49.934;8.656;2023-11-21T10:14:06;13.23;;;8.02;;
24559;SDS011;12727;49.934;8.656;2023-11-21T10:16:35;14.10;;;8.75;;
24559;SDS011;12727;49.934;8.656;2023-11-21T10:19:03;13.82;;;7.75;;
24559;SDS011;12727;49.934;8.656;2023-11-21T10:21:31;14.30;;;8.27;;
24559;SDS011;12727;49.934;8.656;2023-11-21T10:23:58;14.68;;;8.85;;
24559;SDS011;12727;49.934;8.656;2023-11-21T10:26:23;14.73;;;7.60;;
24559;SDS011;12727;49.934;8.656;2023-11-21T10:29:01;12.90;;;7.70;;
24559;SDS011;12727;49.934;8.656;2023-11-21T10:31:31;13.00;;;7.40;;
24559;SDS011;12727;49.934;8.656;2023-11-21T10:34:13;12.27;;;6.65;;
24559;SDS011;12727;49.934;8.656;2023-11-21T10:36:39;11.07;;;6.97;;
24559;SDS011;12727;49.934;8.656;2023-11-21T10:39:04;11.52;;;6.60;;
24559;SDS011;12727;49.934;8.656;2023-11-21T10:41:30;10.02;;;6.13;;
24559;SDS011;12727;49.934;8.656;2023-11-21T10:43:56;12.77;;;6.18;;
24559;SDS011;12727;49.934;8.656;2023-11-21T10:46:21;10.68;;;5.82;;
24559;SDS011;12727;49.934;8.656;2023-11-21T10:48:52;9.85;;;6.03;;
24559;SDS011;12727;49.934;8.656;2023-11-21T10:51:20;10.80;;;6.05;;
24559;SDS011;12727;49.934;8.656;2023-11-21T10:53:46;11.15;;;5.80;;
24559;SDS011;12727;49.934;8.656;2023-11-21T10:56:12;8.93;;;5.82;;
24559;SDS011;12727;49.934;8.656;2023-11-21T10:58:48;7.83;;;5.23;;
24559;SDS011;12727;49.934;8.656;2023-11-21T11:01:17;8.20;;;5.15;;
24559;SDS011;12727;49.934;8.656;2023-11-21T11:03:43;8.30;;;5.03;;
24559;SDS011;12727;49.934;8.656;2023-11-21T11:06:09;5.80;;;4.40;;
24559;SDS011;12727;49.934;8.656;2023-11-21T11:08:39;8.15;;;4.57;;
24559;SDS011;12727;49.934;8.656;2023-11-21T11:11:06;8.77;;;4.20;;
24559;SDS011;12727;49.934;8.656;2023-11-21T11:13:32;7.55;;;4.38;;
24559;SDS011;12727;49.934;8.656;2023-11-21T11:15:58;7.30;;;4.20;;
24559;SDS011;12727;49.934;8.656;2023-11-21T11:18:26;6.68;;;4.10;;
24559;SDS011;12727;49.934;8.656;2023-11-21T11:20:53;8.00;;;4.30;;
24559;SDS011;12727;49.934;8.656;2023-11-21T11:23:37;7.40;;;4.05;;
24559;SDS011;12727;49.934;8.656;2023-11-21T11:31:48;7.97;;;4.75;;
24559;SDS011;12727;49.934;8.656;2023-11-21T11:34:32;11.20;;;5.10;;
24559;SDS011;12727;49.934;8.656;2023-11-21T11:37:02;8.27;;;4.60;;
24559;SDS011;12727;49.934;8.656;2023-11-21T11:39:31;8.73;;;4.25;;
24559;SDS011;12727;49.934;8.656;2023-11-21T11:42:01;8.63;;;4.22;;
24559;SDS011;12727;49.934;8.656;2023-11-21T11:47:28;7.32;;;3.92;;
24559;SDS011;12727;49.934;8.656;2023-11-21T11:50:04;9.07;;;3.95;;
24559;SDS011;12727;49.934;8.656;2023-11-21T11:52:48;8.88;;;3.60;;
24559;SDS011;12727;49.934;8.656;2023-11-21T11:55:17;8.23;;;4.20;;
24559;SDS011;12727;49.934;8.656;2023-11-21T11:57:44;8.18;;;4.07;;
24559;SDS011;12727;49.934;8.656;2023-11-21T12:02:55;9.90;;;4.03;;
24559;SDS011;12727;49.934;8.656;2023-11-21T12:05:25;8.27;;;4.60;;
24559;SDS011;12727;49.934;8.656;2023-11-21T12:07:57;9.77;;;4.10;;
24559;SDS011;12727;49.934;8.656;2023-11-21T12:10:34;7.75;;;4.00;;
24559;SDS011;12727;49.934;8.656;2023-11-21T12:15:35;7.68;;;4.53;;
24559;SDS011;12727;49.934;8.656;2023-11-21T12:18:01;8.68;;;3.95;;
24559;SDS011;12727;49.934;8.656;2023-11-21T12:20:28;7.88;;;4.05;;
24559;SDS011;12727;49.934;8.656;2023-11-21T12:22:56;6.90;;;4.18;;
24559;SDS011;12727;49.934;8.656;2023-11-21T12:25:27;7.85;;;4.47;;
24559;SDS011;12727;49.934;8.656;2023-11-21T12:27:54;9.40;;;4.32;;
24559;SDS011;12727;49.934;8.656;2023-11-21T12:30:21;6.85;;;3.63;;
24559;SDS011;12727;49.934;8.656;2023-11-21T12:32:49;9.95;;;3.42;;
24559;SDS011;12727;49.934;8.656;2023-11-21T12:35:17;8.40;;;3.22;;
24559;SDS011;12727;49.934;8.656;2023-11-21T12:37:44;9.55;;;3.58;;
24559;SDS011;12727;49.934;8.656;2023-11-21T12:40:11;6.60;;;3.53;;
24559;SDS011;12727;49.934;8.656;2023-11-21T12:42:42;7.10;;;4.05;;
24559;SDS011;12727;49.934;8.656;2023-11-21T12:47:48;9.30;;;4.22;;
24559;SDS011;12727;49.934;8.656;2023-11-21T12:50:22;9.13;;;4.40;;
24559;SDS011;12727;49.934;8.656;2023-11-21T12:52:51;8.30;;;4.05;;
24559;SDS011;12727;49.934;8.656;2023-11-21T12:55:19;6.95;;;4.30;;
24559;SDS011;12727;49.934;8.656;2023-11-21T12:57:52;7.72;;;4.03;;
24559;SDS011;12727;49.934;8.656;2023-11-21T13:00:32;9.57;;;4.10;;
24559;SDS011;12727;49.934;8.656;2023-11-21T13:03:02;10.52;;;4.10;;
24559;SDS011;12727;49.934;8.656;2023-11-21T13:05:30;9.07;;;4.05;;
24559;SDS011;12727;49.934;8.656;2023-11-21T13:07:58;8.70;;;4.20;;
24559;SDS011;12727;49.934;8.656;2023-11-21T13:10:27;8.82;;;4.72;;
24559;SDS011;12727;49.934;8.656;2023-11-21T13:12:56;7.70;;;4.18;;
24559;SDS011;12727;49.934;8.656;2023-11-21T13:15:23;6.75;;;4.45;;
24559;SDS011;12727;49.934;8.656;2023-11-21T13:17:49;11.07;;;4.85;;
24559;SDS011;12727;49.934;8.656;2023-11-21T13:20:16;10.55;;;4.82;;
24559;SDS011;12727;49.934;8.656;2023-11-21T13:22:54;10.65;;;4.80;;
24559;SDS011;12727;49.934;8.656;2023-11-21T13:25:25;9.93;;;4.88;;
24559;SDS011;12727;49.934;8.656;2023-11-21T13:27:53;10.00;;;4.57;;
24559;SDS011;12727;49.934;8.656;2023-11-21T13:30:19;11.93;;;5.07;;
24559;SDS011;12727;49.934;8.656;2023-11-21T13:32:51;11.40;;;4.57;;
24559;SDS011;12727;49.934;8.656;2023-11-21T13:35:17;9.23;;;4.82;;
24559;SDS011;12727;49.934;8.656;2023-11-21T13:37:48;9.50;;;4.35;;
24559;SDS011;12727;49.934;8.656;2023-11-21T13:40:18;8.25;;;4.35;;
24559;SDS011;12727;49.934;8.656;2023-11-21T13:42:47;8.80;;;4.15;;
24559;SDS011;12727;49.934;8.656;2023-11-21T13:45:14;5.97;;;4.40;;
24559;SDS011;12727;49.934;8.656;2023-11-21T13:47:41;7.95;;;3.95;;
24559;SDS011;12727;49.934;8.656;2023-11-21T13:50:07;9.85;;;4.20;;
24559;SDS011;12727;49.934;8.656;2023-11-21T13:52:42;7.53;;;4.40;;
24559;SDS011;12727;49.934;8.656;2023-11-21T13:55:10;6.57;;;4.40;;
24559;SDS011;12727;49.934;8.656;2023-11-21T13:57:40;9.48;;;4.30;;
24559;SDS011;12727;49.934;8.656;2023-11-21T14:00:08;10.48;;;4.63;;
24559;SDS011;12727;49.934;8.656;2023-11-21T14:02:51;6.40;;;3.95;;
24559;SDS011;12727;49.934;8.656;2023-11-21T14:05:16;8.20;;;4.32;;
24559;SDS011;12727;49.934;8.656;2023-11-21T14:07:54;8.43;;;4.10;;
24559;SDS011;12727;49.934;8.656;2023-11-21T14:10:21;8.13;;;4.50;;
24559;SDS011;12727;49.934;8.656;2023-11-21T14:12:49;9.57;;;4.13;;
24559;SDS011;12727;49.934;8.656;2023-11-21T14:15:15;10.15;;;3.88;;
24559;SDS011;12727;49.934;8.656;2023-11-21T14:17:43;8.00;;;3.85;;
24559;SDS011;12727;49.934;8.656;2023-11-21T14:20:09;8.68;;;3.80;;
24559;SDS011;12727;49.934;8.656;2023-11-21T14:22:40;6.93;;;3.60;;
24559;SDS011;12727;49.934;8.656;2023-11-21T14:25:06;6.93;;;3.90;;
24559;SDS011;12727;49.934;8.656;2023-11-21T14:27:33;8.35;;;3.80;;
24559;SDS011;12727;49.934;8.656;2023-11-21T14:29:58;6.70;;;3.70;;
24559;SDS011;12727;49.934;8.656;2023-11-21T14:32:24;6.55;;;3.42;;
24559;SDS011;12727;49.934;8.656;2023-11-21T14:34:51;8.65;;;3.60;;
24559;SDS011;12727;49.934;8.656;2023-11-21T14:37:19;6.57;;;3.40;;
24559;SDS011;12727;49.934;8.656;2023-11-21T14:39:45;6.63;;;3.75;;
24559;SDS011;12727;49.934;8.656;2023-11-21T14:42:13;10.45;;;4.50;;
24559;SDS011;12727;49.934;8.656;2023-11-21T14:44:49;7.28;;;3.92;;
24559;SDS011;12727;49.934;8.656;2023-11-21T14:47:14;7.70;;;3.53;;
24559;SDS011;12727;49.934;8.656;2023-11-21T14:49:41;7.20;;;3.90;;
24559;SDS011;12727;49.934;8.656;2023-11-21T14:52:21;10.25;;;4.15;;
24559;SDS011;12727;49.934;8.656;2023-11-21T14:55:00;8.40;;;4.18;;
24559;SDS011;12727;49.934;8.656;2023-11-21T14:57:45;8.30;;;4.57;;
24559;SDS011;12727;49.934;8.656;2023-11-21T15:00:17;6.70;;;3.80;;
24559;SDS011;12727;49.934;8.656;2023-11-21T15:03:07;7.53;;;3.72;;